createdAt,value
2023-05-22T00:02:48.027Z,100961.56
2023-05-22T00:07:45.550Z,101003.75
2023-05-22T00:12:42.929Z,101005.22
2023-05-22T00:17:40.359Z,101024.22
2023-05-22T00:22:40.342Z,100984.06
2023-05-22T00:27:37.454Z,100993.97
2023-05-22T00:32:36.435Z,100996.47
2023-05-22T00:37:33.601Z,100974.06
2023-05-22T00:42:31.379Z,101025.13
2023-05-22T00:47:28.405Z,101013.75
2023-05-22T00:52:25.670Z,101028.22
2023-05-22T00:57:23.936Z,101009.97
2023-05-22T01:02:22.348Z,101014.19
2023-05-22T01:07:19.295Z,100987.84
2023-05-22T01:12:24.479Z,100932.53
2023-05-22T01:17:34.120Z,100994.25
2023-05-22T01:22:49.434Z,100995.31
2023-05-22T01:28:05.908Z,100964.50
2023-05-22T01:33:06.976Z,100971.28
2023-05-22T01:38:04.390Z,100984.31
2023-05-22T01:43:01.440Z,100985.66
2023-05-22T01:47:58.531Z,100965.31
2023-05-22T01:53:06.118Z,100978.50
2023-05-22T01:58:12.750Z,100978.25
2023-05-22T02:03:18.071Z,100971.00
2023-05-22T02:08:17.136Z,100955.78
2023-05-22T02:13:14.292Z,100978.25
2023-05-22T02:18:12.898Z,101004.25
2023-05-22T02:23:10.356Z,100999.19
2023-05-22T02:28:08.044Z,100995.09
2023-05-22T02:33:05.533Z,100942.97
2023-05-22T02:38:02.939Z,100995.69
2023-05-22T02:42:59.960Z,100985.28
2023-05-22T02:47:59.605Z,100993.63
2023-05-22T02:52:56.650Z,101004.53
2023-05-22T02:57:53.613Z,100989.16
2023-05-22T03:02:51.436Z,100942.47
2023-05-22T03:07:49.506Z,101010.31
2023-05-22T03:12:46.502Z,101007.88
2023-05-22T03:17:44.066Z,100958.91
2023-05-22T03:22:41.657Z,100943.66
2023-05-22T03:27:40.024Z,101002.41
2023-05-22T03:32:37.979Z,100911.84
2023-05-22T03:37:35.883Z,100998.41
2023-05-22T03:42:32.873Z,100999.72
2023-05-22T03:47:30.865Z,100993.53
2023-05-22T03:52:27.996Z,100888.53
2023-05-22T03:57:24.983Z,100923.03
2023-05-22T04:02:22.425Z,100940.56
2023-05-22T04:07:21.869Z,100939.50
2023-05-22T04:12:20.925Z,101005.22
2023-05-22T04:17:19.794Z,101005.88
2023-05-22T04:22:16.996Z,101007.03
2023-05-22T04:27:15.220Z,101002.97
2023-05-22T04:32:11.973Z,101002.97
2023-05-22T04:37:09.770Z,100989.28
2023-05-22T04:42:15.398Z,100960.84
2023-05-22T04:47:13.935Z,101012.25
2023-05-22T04:52:13.728Z,100983.56
2023-05-22T04:57:10.729Z,101008.47
2023-05-22T05:02:08.928Z,101014.31
2023-05-22T05:07:21.175Z,100981.78
2023-05-22T05:12:20.312Z,100968.97
2023-05-22T05:17:17.299Z,101009.16
2023-05-22T05:22:14.834Z,101014.34
2023-05-22T05:27:11.893Z,101017.84
2023-05-22T05:32:09.478Z,101013.13
2023-05-22T05:37:23.791Z,101019.81
2023-05-22T05:42:23.343Z,100981.72
2023-05-22T05:47:23.381Z,101020.16
2023-05-22T05:52:33.819Z,100991.03
2023-05-22T05:57:37.757Z,101007.22
2023-05-22T06:02:41.845Z,101007.19
2023-05-22T06:08:06.126Z,101010.34
2023-05-22T06:13:03.347Z,101033.28
2023-05-22T06:18:03.334Z,101021.25
2023-05-22T06:23:07.509Z,101038.16
2023-05-22T06:28:05.612Z,101018.41
2023-05-22T06:33:03.648Z,101018.88
2023-05-22T06:38:01.506Z,100989.44
2023-05-22T06:42:59.107Z,101004.84
2023-05-22T06:48:13.879Z,101020.97
2023-05-22T06:53:25.787Z,100947.75
2023-05-22T06:58:23.172Z,101018.13
2023-05-22T07:03:21.446Z,101012.44
2023-05-22T07:08:48.195Z,101018.75
2023-05-22T07:13:45.433Z,100969.00
2023-05-22T07:18:42.469Z,101015.63
2023-05-22T07:23:39.681Z,101013.94
2023-05-22T07:28:39.632Z,101015.53
2023-05-22T07:33:44.849Z,101012.06
2023-05-22T07:38:42.481Z,101018.03
2023-05-22T07:43:52.479Z,100953.00
2023-05-22T07:48:55.137Z,100940.44
2023-05-22T07:59:02.774Z,100985.75
2023-05-22T08:04:09.776Z,101008.75
2023-05-22T08:09:32.353Z,100970.03
2023-05-22T08:14:31.575Z,100953.97
2023-05-22T08:19:47.707Z,100984.91
2023-05-22T08:24:47.609Z,100934.59
2023-05-22T08:29:45.936Z,100989.81
2023-05-22T08:34:45.576Z,100932.66
2023-05-22T08:39:43.538Z,100958.44
2023-05-22T08:44:40.935Z,100992.50
2023-05-22T08:49:49.874Z,100971.69
2023-05-22T08:54:52.545Z,100930.22
2023-05-22T08:59:53.195Z,100936.53
2023-05-22T09:05:18.336Z,100909.97
2023-05-22T09:10:22.208Z,100908.94
2023-05-22T09:15:30.387Z,100901.13
2023-05-22T09:20:29.712Z,100972.88
2023-05-22T09:25:28.060Z,100905.34
2023-05-22T09:30:27.420Z,100942.50
2023-05-22T09:35:33.274Z,100941.38
2023-05-22T09:40:40.526Z,100909.09
2023-05-22T09:45:45.540Z,100887.38
2023-05-22T09:50:55.323Z,100914.63
2023-05-22T09:55:56.305Z,100953.00
2023-05-22T10:00:58.291Z,100889.28
2023-05-22T10:05:58.494Z,100951.69
2023-05-22T10:11:01.470Z,100894.50
2023-05-22T10:16:04.214Z,100932.09
2023-05-22T10:21:08.175Z,100849.56
2023-05-22T10:26:13.103Z,100853.47
2023-05-22T10:31:24.866Z,100921.94
2023-05-22T10:37:00.455Z,100914.19
2023-05-22T10:42:12.710Z,100899.44
2023-05-22T10:47:12.917Z,100834.25
2023-05-22T10:52:14.122Z,100868.03
2023-05-22T10:57:15.419Z,100868.09
2023-05-22T11:02:20.971Z,100860.63
2023-05-22T11:07:18.835Z,100858.97
2023-05-22T11:12:24.853Z,100837.16
2023-05-22T11:17:23.964Z,100871.75
2023-05-22T11:22:30.918Z,100763.72
2023-05-22T11:27:37.408Z,100834.94
2023-05-22T11:32:38.843Z,100829.59
2023-05-22T11:37:39.700Z,100783.59
2023-05-22T11:42:37.062Z,100867.72
2023-05-22T11:47:34.629Z,100785.31
2023-05-22T11:52:33.009Z,100821.81
2023-05-22T11:57:31.400Z,100804.31
2023-05-22T12:02:28.255Z,100838.78
2023-05-22T12:07:27.002Z,100733.28
2023-05-22T12:12:24.090Z,100730.47
2023-05-22T12:17:37.609Z,100713.09
2023-05-22T12:22:41.070Z,100765.84
2023-05-22T12:27:38.883Z,100705.72
2023-05-22T12:32:36.587Z,100737.53
2023-05-22T12:37:34.010Z,100672.69
2023-05-22T12:42:31.206Z,100683.50
2023-05-22T12:47:33.129Z,100758.09
2023-05-22T12:52:36.471Z,100663.91
2023-05-22T12:57:38.612Z,100760.63
2023-05-22T13:02:36.142Z,100648.94
2023-05-22T13:07:33.805Z,100756.78
2023-05-22T13:12:31.657Z,100747.59
2023-05-22T13:17:31.048Z,100702.41
2023-05-22T13:22:39.816Z,100699.66
2023-05-22T13:27:44.632Z,100725.41
2023-05-22T13:32:48.466Z,100745.94
2023-05-22T13:37:46.508Z,100705.91
2023-05-22T13:42:44.011Z,100738.09
2023-05-22T13:47:41.042Z,100663.03
2023-05-22T13:52:40.266Z,100748.34
2023-05-22T13:57:39.986Z,100726.72
2023-05-22T14:02:40.012Z,100742.75
2023-05-22T14:07:56.885Z,100670.53
2023-05-22T14:13:02.055Z,100741.75
2023-05-22T14:17:59.433Z,100696.94
2023-05-22T14:23:07.050Z,100649.50
2023-05-22T14:28:04.834Z,100729.59
2023-05-22T14:33:10.969Z,100704.03
2023-05-22T14:38:19.293Z,100712.13
2023-05-22T14:43:18.019Z,100651.16
2023-05-22T14:48:15.160Z,100735.19
2023-05-22T14:53:15.535Z,100736.78
2023-05-22T14:58:21.472Z,100711.06
2023-05-22T15:03:27.052Z,100616.03
2023-05-22T15:08:28.005Z,100723.88
2023-05-22T15:13:53.162Z,100618.28
2023-05-22T15:18:50.920Z,100701.81
2023-05-22T15:23:51.908Z,100675.50
2023-05-22T15:28:49.976Z,100701.25
2023-05-22T15:33:55.077Z,100639.31
2023-05-22T15:38:57.779Z,100692.00
2023-05-22T15:44:03.664Z,100648.22
2023-05-22T15:49:00.671Z,100629.47
2023-05-22T15:53:57.729Z,100716.88
2023-05-22T15:58:55.740Z,100639.91
2023-05-22T16:03:53.531Z,100692.59
2023-05-22T16:08:51.118Z,100726.34
2023-05-22T16:13:55.238Z,100665.47
2023-05-22T16:18:58.797Z,100640.78
2023-05-22T16:24:08.277Z,100632.91
2023-05-22T16:29:16.503Z,100646.84
2023-05-22T16:34:24.862Z,100711.84
2023-05-22T16:39:41.380Z,100736.84
2023-05-22T16:44:46.145Z,100705.59
2023-05-22T16:49:45.096Z,100699.69
2023-05-22T16:54:42.272Z,100654.72
2023-05-22T16:59:42.766Z,100738.50
2023-05-22T17:05:12.939Z,100740.16
2023-05-22T17:10:24.898Z,100727.69
2023-05-22T17:15:29.041Z,100678.13
2023-05-22T17:20:26.702Z,100764.94
2023-05-22T17:25:30.075Z,100769.78
2023-05-22T17:30:27.435Z,100743.47
2023-05-22T17:35:24.790Z,100794.47
2023-05-22T17:40:43.185Z,100768.38
2023-05-22T17:45:58.691Z,100776.72
2023-05-22T17:50:55.884Z,100810.41
2023-05-22T18:01:09.424Z,100729.94
2023-05-22T18:06:13.237Z,100806.06
2023-05-22T18:11:13.628Z,100762.25
2023-05-22T18:16:11.658Z,100840.34
2023-05-22T18:21:09.295Z,100843.06
2023-05-22T18:26:34.298Z,100836.31
2023-05-22T18:31:32.179Z,100829.19
2023-05-22T18:36:29.483Z,100826.69
2023-05-22T18:41:28.375Z,100832.47
2023-05-22T18:46:28.955Z,100744.81
2023-05-22T18:51:28.578Z,100808.06
2023-05-22T18:56:28.429Z,100774.66
2023-05-22T19:01:28.423Z,100850.00
2023-05-22T19:06:26.080Z,100810.69
2023-05-22T19:11:23.539Z,100885.53
2023-05-22T19:16:24.453Z,100862.88
2023-05-22T19:21:29.986Z,100857.22
2023-05-22T19:26:27.277Z,100873.44
2023-05-22T19:31:25.329Z,100903.00
2023-05-22T19:36:34.074Z,100781.59
2023-05-22T19:41:31.604Z,100911.06
2023-05-22T19:46:29.909Z,100912.53
2023-05-22T19:51:27.536Z,100907.13
2023-05-22T19:56:25.706Z,100882.03
2023-05-22T20:01:24.632Z,100841.34
2023-05-22T20:06:22.489Z,100922.22
2023-05-22T20:11:19.491Z,100912.13
2023-05-22T20:16:16.522Z,100863.41
2023-05-22T20:21:14.358Z,100887.84
2023-05-22T20:26:14.955Z,100905.13
2023-05-22T20:31:12.126Z,100905.41
2023-05-22T20:36:09.078Z,100818.38
2023-05-22T20:41:07.582Z,100890.50
2023-05-22T20:46:11.866Z,100904.03
2023-05-22T20:51:09.660Z,100883.66
2023-05-22T20:56:06.720Z,100936.81
2023-05-22T21:01:03.905Z,100891.56
2023-05-22T21:06:01.544Z,100944.44
2023-05-22T21:10:58.433Z,100948.94
2023-05-22T21:15:55.388Z,100937.16
2023-05-22T21:20:56.462Z,100941.91
2023-05-22T21:25:54.057Z,100949.81
2023-05-22T21:30:51.469Z,100947.25
2023-05-22T21:35:49.459Z,100852.28
2023-05-22T21:40:46.409Z,100952.59
2023-05-22T21:45:44.054Z,100890.72
2023-05-22T21:50:41.007Z,100943.03
2023-05-22T21:55:38.228Z,100950.63
2023-05-22T22:00:35.280Z,100924.47
2023-05-22T22:05:35.503Z,100913.06
2023-05-22T22:10:32.349Z,100927.53
2023-05-22T22:15:33.241Z,100919.34
2023-05-22T22:20:43.675Z,100942.72
2023-05-22T22:25:42.980Z,100896.09
2023-05-22T22:30:40.304Z,100895.09
2023-05-22T22:35:37.826Z,100903.25
2023-05-22T22:40:34.883Z,100923.78
2023-05-22T22:45:32.831Z,100915.47
2023-05-22T22:50:29.807Z,100836.53
2023-05-22T22:55:26.780Z,100885.03
2023-05-22T23:00:24.110Z,100907.28
2023-05-22T23:05:22.231Z,100857.25
2023-05-22T23:10:19.347Z,100853.16
2023-05-22T23:15:16.386Z,100896.78
2023-05-22T23:20:13.679Z,100838.75
2023-05-22T23:25:11.381Z,100891.03
2023-05-22T23:30:08.861Z,100878.84
2023-05-22T23:35:06.130Z,100904.88
2023-05-22T23:40:06.073Z,100865.00
2023-05-22T23:45:04.228Z,100890.06
2023-05-22T23:50:01.262Z,100893.56
2023-05-22T23:54:58.201Z,100856.78
2023-05-22T23:59:55.260Z,100897.53
